sensor_id;sensor_type;location;lat;lon;timestamp;P1;durP1;ratioP1;P2;durP2;ratioP2
66970;SDS011;53901;51.466;-2.588;2023-01-29T00:01:06;19.95;;;10.50;;
66970;SDS011;53901;51.466;-2.588;2023-01-29T00:03:32;18.08;;;9.30;;
66970;SDS011;53901;51.466;-2.588;2023-01-29T00:05:58;16.30;;;9.23;;
66970;SDS011;53901;51.466;-2.588;2023-01-29T00:08:24;21.13;;;9.77;;
66970;SDS011;53901;51.466;-2.588;2023-01-29T00:10:51;17.48;;;10.45;;
66970;SDS011;53901;51.466;-2.588;2023-01-29T00:13:17;17.95;;;10.23;;
66970;SDS011;53901;51.466;-2.588;2023-01-29T00:15:42;20.80;;;10.50;;
66970;SDS011;53901;51.466;-2.588;2023-01-29T00:18:18;18.55;;;9.73;;
66970;SDS011;53901;51.466;-2.588;2023-01-29T00:20:43;17.17;;;9.90;;
66970;SDS011;53901;51.466;-2.588;2023-01-29T00:23:08;15.90;;;9.77;;
66970;SDS011;53901;51.466;-2.588;2023-01-29T00:25:34;18.92;;;10.35;;
66970;SDS011;53901;51.466;-2.588;2023-01-29T00:27:59;22.05;;;10.43;;
66970;SDS011;53901;51.466;-2.588;2023-01-29T00:30:24;18.33;;;9.45;;
66970;SDS011;53901;51.466;-2.588;2023-01-29T00:32:50;21.40;;;10.02;;
66970;SDS011;53901;51.466;-2.588;2023-01-29T00:35:16;20.35;;;10.23;;
66970;SDS011;53901;51.466;-2.588;2023-01-29T00:37:42;18.42;;;8.38;;
66970;SDS011;53901;51.466;-2.588;2023-01-29T00:40:08;19.08;;;9.35;;
66970;SDS011;53901;51.466;-2.588;2023-01-29T00:42:33;21.85;;;10.05;;
66970;SDS011;53901;51.466;-2.588;2023-01-29T00:45:17;17.25;;;8.93;;
66970;SDS011;53901;51.466;-2.588;2023-01-29T00:47:43;16.67;;;9.02;;
66970;SDS011;53901;51.466;-2.588;2023-01-29T00:50:09;18.60;;;8.98;;
66970;SDS011;53901;51.466;-2.588;2023-01-29T00:52:35;17.52;;;9.20;;
66970;SDS011;53901;51.466;-2.588;2023-01-29T00:55:01;21.77;;;9.70;;
66970;SDS011;53901;51.466;-2.588;2023-01-29T00:57:28;16.23;;;8.52;;
66970;SDS011;53901;51.466;-2.588;2023-01-29T00:59:55;14.77;;;8.98;;
66970;SDS011;53901;51.466;-2.588;2023-01-29T01:02:21;15.65;;;9.32;;
66970;SDS011;53901;51.466;-2.588;2023-01-29T01:05:06;20.58;;;9.25;;
66970;SDS011;53901;51.466;-2.588;2023-01-29T01:07:38;16.58;;;8.30;;
66970;SDS011;53901;51.466;-2.588;2023-01-29T01:10:04;19.52;;;9.10;;
66970;SDS011;53901;51.466;-2.588;2023-01-29T01:13:06;21.75;;;9.10;;
66970;SDS011;53901;51.466;-2.588;2023-01-29T01:15:33;17.00;;;9.43;;
66970;SDS011;53901;51.466;-2.588;2023-01-29T01:18:00;16.00;;;9.95;;
66970;SDS011;53901;51.466;-2.588;2023-01-29T01:20:26;16.73;;;8.85;;
66970;SDS011;53901;51.466;-2.588;2023-01-29T01:22:53;16.73;;;9.13;;
66970;SDS011;53901;51.466;-2.588;2023-01-29T01:25:19;18.92;;;8.77;;
66970;SDS011;53901;51.466;-2.588;2023-01-29T01:27:45;17.50;;;9.20;;
66970;SDS011;53901;51.466;-2.588;2023-01-29T01:30:12;18.17;;;8.73;;
66970;SDS011;53901;51.466;-2.588;2023-01-29T01:32:39;17.88;;;9.02;;
66970;SDS011;53901;51.466;-2.588;2023-01-29T01:35:05;16.08;;;8.80;;
66970;SDS011;53901;51.466;-2.588;2023-01-29T01:37:31;18.08;;;8.90;;
66970;SDS011;53901;51.466;-2.588;2023-01-29T01:39:57;21.25;;;8.75;;
66970;SDS011;53901;51.466;-2.588;2023-01-29T01:42:28;20.73;;;9.45;;
66970;SDS011;53901;51.466;-2.588;2023-01-29T01:44:58;16.38;;;9.05;;
66970;SDS011;53901;51.466;-2.588;2023-01-29T01:50:00;24.20;;;8.73;;
66970;SDS011;53901;51.466;-2.588;2023-01-29T01:52:32;16.73;;;8.32;;
66970;SDS011;53901;51.466;-2.588;2023-01-29T01:54:58;15.63;;;8.38;;
66970;SDS011;53901;51.466;-2.588;2023-01-29T01:57:24;19.23;;;10.07;;
66970;SDS011;53901;51.466;-2.588;2023-01-29T02:00:09;18.58;;;9.38;;
66970;SDS011;53901;51.466;-2.588;2023-01-29T02:02:37;19.20;;;9.77;;
66970;SDS011;53901;51.466;-2.588;2023-01-29T02:05:22;17.13;;;9.40;;
66970;SDS011;53901;51.466;-2.588;2023-01-29T02:08:07;21.98;;;9.68;;
66970;SDS011;53901;51.466;-2.588;2023-01-29T02:10:52;16.08;;;9.10;;
66970;SDS011;53901;51.466;-2.588;2023-01-29T02:13:17;20.58;;;9.88;;
66970;SDS011;53901;51.466;-2.588;2023-01-29T02:15:46;16.98;;;9.55;;
66970;SDS011;53901;51.466;-2.588;2023-01-29T02:18:16;19.58;;;9.48;;
66970;SDS011;53901;51.466;-2.588;2023-01-29T02:20:58;19.00;;;9.82;;
66970;SDS011;53901;51.466;-2.588;2023-01-29T02:26:38;21.05;;;10.60;;
66970;SDS011;53901;51.466;-2.588;2023-01-29T02:32:04;22.15;;;10.48;;
66970;SDS011;53901;51.466;-2.588;2023-01-29T02:34:46;25.13;;;11.52;;
66970;SDS011;53901;51.466;-2.588;2023-01-29T02:37:37;25.65;;;11.73;;
66970;SDS011;53901;51.466;-2.588;2023-01-29T02:43:00;24.15;;;12.50;;
66970;SDS011;53901;51.466;-2.588;2023-01-29T02:48:18;29.88;;;11.30;;
66970;SDS011;53901;51.466;-2.588;2023-01-29T02:55:47;26.17;;;13.10;;
66970;SDS011;53901;51.466;-2.588;2023-01-29T03:01:11;25.77;;;12.02;;
66970;SDS011;53901;51.466;-2.588;2023-01-29T03:03:41;23.20;;;12.57;;
66970;SDS011;53901;51.466;-2.588;2023-01-29T03:09:03;29.05;;;13.10;;
66970;SDS011;53901;51.466;-2.588;2023-01-29T03:11:33;30.88;;;13.60;;
66970;SDS011;53901;51.466;-2.588;2023-01-29T03:14:08;25.10;;;12.77;;
66970;SDS011;53901;51.466;-2.588;2023-01-29T03:16:42;24.35;;;12.98;;
66970;SDS011;53901;51.466;-2.588;2023-01-29T03:19:20;25.73;;;13.60;;
66970;SDS011;53901;51.466;-2.588;2023-01-29T03:21:58;28.75;;;13.98;;
66970;SDS011;53901;51.466;-2.588;2023-01-29T03:27:35;24.23;;;12.63;;
66970;SDS011;53901;51.466;-2.588;2023-01-29T03:30:21;30.85;;;13.95;;
66970;SDS011;53901;51.466;-2.588;2023-01-29T03:33:09;29.40;;;13.25;;
66970;SDS011;53901;51.466;-2.588;2023-01-29T03:35:36;29.77;;;14.10;;
66970;SDS011;53901;51.466;-2.588;2023-01-29T03:38:06;27.00;;;13.48;;
66970;SDS011;53901;51.466;-2.588;2023-01-29T03:40:42;26.00;;;13.13;;
66970;SDS011;53901;51.466;-2.588;2023-01-29T03:43:13;24.95;;;12.35;;
66970;SDS011;53901;51.466;-2.588;2023-01-29T03:45:49;30.25;;;13.55;;
66970;SDS011;53901;51.466;-2.588;2023-01-29T03:48:39;26.50;;;12.68;;
66970;SDS011;53901;51.466;-2.588;2023-01-29T03:54:27;30.60;;;14.20;;
66970;SDS011;53901;51.466;-2.588;2023-01-29T03:59:32;26.15;;;12.45;;
66970;SDS011;53901;51.466;-2.588;2023-01-29T04:02:26;41.22;;;13.43;;
66970;SDS011;53901;51.466;-2.588;2023-01-29T04:04:56;24.17;;;12.60;;
66970;SDS011;53901;51.466;-2.588;2023-01-29T04:07:24;24.75;;;12.13;;
66970;SDS011;53901;51.466;-2.588;2023-01-29T04:09:50;29.83;;;13.20;;
66970;SDS011;53901;51.466;-2.588;2023-01-29T04:12:19;21.95;;;11.32;;
66970;SDS011;53901;51.466;-2.588;2023-01-29T04:14:47;26.33;;;11.95;;
66970;SDS011;53901;51.466;-2.588;2023-01-29T04:17:18;26.20;;;12.52;;
66970;SDS011;53901;51.466;-2.588;2023-01-29T04:19:48;26.00;;;11.77;;
66970;SDS011;53901;51.466;-2.588;2023-01-29T04:22:22;25.80;;;11.93;;
66970;SDS011;53901;51.466;-2.588;2023-01-29T04:24:50;22.88;;;11.55;;
66970;SDS011;53901;51.466;-2.588;2023-01-29T04:27:25;22.90;;;12.25;;
66970;SDS011;53901;51.466;-2.588;2023-01-29T04:41:01;26.08;;;12.43;;
66970;SDS011;53901;51.466;-2.588;2023-01-29T04:49:35;23.02;;;11.55;;
66970;SDS011;53901;51.466;-2.588;2023-01-29T04:54:21;28.95;;;11.27;;
66970;SDS011;53901;51.466;-2.588;2023-01-29T04:59:27;25.08;;;10.70;;
66970;SDS011;53901;51.466;-2.588;2023-01-29T05:01:55;23.88;;;10.90;;
66970;SDS011;53901;51.466;-2.588;2023-01-29T05:04:20;19.80;;;10.02;;
66970;SDS011;53901;51.466;-2.588;2023-01-29T05:06:47;22.50;;;10.27;;
66970;SDS011;53901;51.466;-2.588;2023-01-29T05:09:13;22.75;;;11.15;;
66970;SDS011;53901;51.466;-2.588;2023-01-29T05:11:39;21.67;;;9.95;;
66970;SDS011;53901;51.466;-2.588;2023-01-29T05:14:05;21.55;;;10.05;;
66970;SDS011;53901;51.466;-2.588;2023-01-29T05:16:36;19.42;;;9.65;;
66970;SDS011;53901;51.466;-2.588;2023-01-29T05:19:12;20.98;;;9.20;;
66970;SDS011;53901;51.466;-2.588;2023-01-29T05:21:39;21.10;;;8.40;;
66970;SDS011;53901;51.466;-2.588;2023-01-29T05:24:07;20.80;;;9.13;;
66970;SDS011;53901;51.466;-2.588;2023-01-29T05:26:37;22.65;;;9.32;;
66970;SDS011;53901;51.466;-2.588;2023-01-29T05:29:21;23.73;;;9.32;;
66970;SDS011;53901;51.466;-2.588;2023-01-29T05:31:47;18.23;;;9.52;;
66970;SDS011;53901;51.466;-2.588;2023-01-29T05:34:12;23.17;;;8.10;;
66970;SDS011;53901;51.466;-2.588;2023-01-29T05:36:37;21.35;;;8.60;;
66970;SDS011;53901;51.466;-2.588;2023-01-29T05:39:03;22.30;;;9.30;;
66970;SDS011;53901;51.466;-2.588;2023-01-29T05:41:28;28.05;;;9.88;;
66970;SDS011;53901;51.466;-2.588;2023-01-29T05:43:54;23.40;;;9.43;;
66970;SDS011;53901;51.466;-2.588;2023-01-29T05:46:19;24.13;;;8.95;;
66970;SDS011;53901;51.466;-2.588;2023-01-29T05:48:45;14.00;;;8.05;;
66970;SDS011;53901;51.466;-2.588;2023-01-29T05:51:10;19.33;;;7.78;;
66970;SDS011;53901;51.466;-2.588;2023-01-29T05:53:35;14.45;;;7.68;;
66970;SDS011;53901;51.466;-2.588;2023-01-29T05:56:01;17.15;;;7.80;;
66970;SDS011;53901;51.466;-2.588;2023-01-29T05:58:28;18.90;;;8.00;;
66970;SDS011;53901;51.466;-2.588;2023-01-29T06:00:54;21.55;;;8.25;;
66970;SDS011;53901;51.466;-2.588;2023-01-29T06:03:20;17.10;;;7.43;;
66970;SDS011;53901;51.466;-2.588;2023-01-29T06:05:45;15.32;;;6.55;;
66970;SDS011;53901;51.466;-2.588;2023-01-29T06:08:11;14.57;;;6.28;;
66970;SDS011;53901;51.466;-2.588;2023-01-29T06:10:37;14.98;;;7.25;;
66970;SDS011;53901;51.466;-2.588;2023-01-29T06:13:02;16.52;;;7.18;;
66970;SDS011;53901;51.466;-2.588;2023-01-29T06:15:28;16.95;;;7.40;;
66970;SDS011;53901;51.466;-2.588;2023-01-29T06:17:53;16.60;;;6.65;;
66970;SDS011;53901;51.466;-2.588;2023-01-29T06:20:19;13.65;;;6.85;;
66970;SDS011;53901;51.466;-2.588;2023-01-29T06:22:44;14.25;;;7.57;;
66970;SDS011;53901;51.466;-2.588;2023-01-29T06:25:10;13.85;;;7.28;;
66970;SDS011;53901;51.466;-2.588;2023-01-29T06:27:35;15.35;;;6.93;;
66970;SDS011;53901;51.466;-2.588;2023-01-29T06:30:02;13.10;;;6.85;;
66970;SDS011;53901;51.466;-2.588;2023-01-29T06:32:28;14.32;;;7.75;;
66970;SDS011;53901;51.466;-2.588;2023-01-29T06:34:54;15.40;;;7.32;;
66970;SDS011;53901;51.466;-2.588;2023-01-29T06:37:19;14.68;;;7.13;;
66970;SDS011;53901;51.466;-2.588;2023-01-29T06:39:44;14.63;;;7.30;;
66970;SDS011;53901;51.466;-2.588;2023-01-29T06:42:10;12.30;;;6.90;;
66970;SDS011;53901;51.466;-2.588;2023-01-29T06:44:35;13.55;;;6.85;;
66970;SDS011;53901;51.466;-2.588;2023-01-29T06:47:01;18.27;;;7.55;;
66970;SDS011;53901;51.466;-2.588;2023-01-29T06:49:26;12.20;;;7.03;;
66970;SDS011;53901;51.466;-2.588;2023-01-29T06:51:51;15.38;;;7.90;;
66970;SDS011;53901;51.466;-2.588;2023-01-29T06:54:17;14.20;;;7.55;;
66970;SDS011;53901;51.466;-2.588;2023-01-29T06:56:42;12.57;;;6.68;;
66970;SDS011;53901;51.466;-2.588;2023-01-29T06:59:07;12.68;;;6.70;;
66970;SDS011;53901;51.466;-2.588;2023-01-29T07:01:33;12.48;;;6.55;;
66970;SDS011;53901;51.466;-2.588;2023-01-29T07:03:58;14.57;;;6.28;;
66970;SDS011;53901;51.466;-2.588;2023-01-29T07:06:27;10.65;;;6.03;;
66970;SDS011;53901;51.466;-2.588;2023-01-29T07:08:53;12.52;;;5.65;;
66970;SDS011;53901;51.466;-2.588;2023-01-29T07:11:18;13.15;;;5.03;;
66970;SDS011;53901;51.466;-2.588;2023-01-29T07:13:44;11.27;;;5.47;;
66970;SDS011;53901;51.466;-2.588;2023-01-29T07:16:09;11.15;;;4.88;;
66970;SDS011;53901;51.466;-2.588;2023-01-29T07:18:35;7.60;;;4.13;;
66970;SDS011;53901;51.466;-2.588;2023-01-29T07:21:04;8.18;;;3.70;;
66970;SDS011;53901;51.466;-2.588;2023-01-29T07:23:31;6.20;;;3.83;;
66970;SDS011;53901;51.466;-2.588;2023-01-29T07:25:59;6.88;;;4.05;;
66970;SDS011;53901;51.466;-2.588;2023-01-29T07:28:26;7.07;;;3.80;;
66970;SDS011;53901;51.466;-2.588;2023-01-29T07:30:54;15.25;;;9.15;;
66970;SDS011;53901;51.466;-2.588;2023-01-29T07:33:21;7.15;;;3.70;;
66970;SDS011;53901;51.466;-2.588;2023-01-29T07:35:46;8.85;;;3.08;;
66970;SDS011;53901;51.466;-2.588;2023-01-29T07:38:11;6.70;;;3.55;;
66970;SDS011;53901;51.466;-2.588;2023-01-29T07:40:37;6.32;;;3.60;;
66970;SDS011;53901;51.466;-2.588;2023-01-29T07:43:03;8.85;;;3.58;;
66970;SDS011;53901;51.466;-2.588;2023-01-29T07:45:30;9.43;;;4.70;;
66970;SDS011;53901;51.466;-2.588;2023-01-29T07:47:55;7.65;;;4.57;;
66970;SDS011;53901;51.466;-2.588;2023-01-29T07:50:22;11.85;;;5.43;;
66970;SDS011;53901;51.466;-2.588;2023-01-29T07:52:48;6.75;;;3.97;;
66970;SDS011;53901;51.466;-2.588;2023-01-29T07:55:13;6.57;;;4.32;;
66970;SDS011;53901;51.466;-2.588;2023-01-29T07:57:39;6.90;;;4.47;;
66970;SDS011;53901;51.466;-2.588;2023-01-29T08:00:04;8.65;;;5.10;;
66970;SDS011;53901;51.466;-2.588;2023-01-29T08:02:30;9.45;;;5.13;;
66970;SDS011;53901;51.466;-2.588;2023-01-29T08:04:55;7.35;;;4.20;;
66970;SDS011;53901;51.466;-2.588;2023-01-29T08:07:21;8.88;;;4.47;;
66970;SDS011;53901;51.466;-2.588;2023-01-29T08:09:46;10.32;;;4.93;;
66970;SDS011;53901;51.466;-2.588;2023-01-29T08:12:11;11.60;;;5.65;;
66970;SDS011;53901;51.466;-2.588;2023-01-29T08:14:37;10.77;;;5.35;;
66970;SDS011;53901;51.466;-2.588;2023-01-29T08:17:02;8.57;;;4.95;;
66970;SDS011;53901;51.466;-2.588;2023-01-29T08:19:28;7.55;;;4.30;;
66970;SDS011;53901;51.466;-2.588;2023-01-29T08:21:53;11.75;;;5.97;;
66970;SDS011;53901;51.466;-2.588;2023-01-29T08:24:18;9.07;;;5.22;;
66970;SDS011;53901;51.466;-2.588;2023-01-29T08:26:44;10.05;;;5.05;;
66970;SDS011;53901;51.466;-2.588;2023-01-29T08:29:10;11.35;;;5.50;;
66970;SDS011;53901;51.466;-2.588;2023-01-29T08:31:36;12.13;;;5.78;;
66970;SDS011;53901;51.466;-2.588;2023-01-29T08:34:01;9.15;;;3.55;;
66970;SDS011;53901;51.466;-2.588;2023-01-29T08:36:26;8.18;;;4.10;;
66970;SDS011;53901;51.466;-2.588;2023-01-29T08:38:52;7.88;;;2.95;;
66970;SDS011;53901;51.466;-2.588;2023-01-29T08:41:17;6.20;;;3.35;;
66970;SDS011;53901;51.466;-2.588;2023-01-29T08:43:43;4.78;;;2.90;;
66970;SDS011;53901;51.466;-2.588;2023-01-29T08:46:08;8.30;;;3.88;;
66970;SDS011;53901;51.466;-2.588;2023-01-29T08:48:34;5.35;;;2.80;;
66970;SDS011;53901;51.466;-2.588;2023-01-29T08:51:00;4.75;;;3.10;;
66970;SDS011;53901;51.466;-2.588;2023-01-29T08:53:26;6.40;;;3.58;;
66970;SDS011;53901;51.466;-2.588;2023-01-29T08:55:52;7.60;;;3.20;;
66970;SDS011;53901;51.466;-2.588;2023-01-29T08:58:18;8.73;;;3.25;;
66970;SDS011;53901;51.466;-2.588;2023-01-29T09:00:43;7.07;;;2.88;;
66970;SDS011;53901;51.466;-2.588;2023-01-29T09:03:08;5.70;;;3.30;;
66970;SDS011;53901;51.466;-2.588;2023-01-29T09:05:37;5.15;;;2.97;;
66970;SDS011;53901;51.466;-2.588;2023-01-29T09:08:04;7.47;;;3.17;;
66970;SDS011;53901;51.466;-2.588;2023-01-29T09:10:30;4.15;;;2.78;;
66970;SDS011;53901;51.466;-2.588;2023-01-29T09:12:55;4.63;;;2.90;;
66970;SDS011;53901;51.466;-2.588;2023-01-29T09:15:21;9.25;;;3.40;;
66970;SDS011;53901;51.466;-2.588;2023-01-29T09:17:48;7.03;;;3.38;;
66970;SDS011;53901;51.466;-2.588;2023-01-29T09:20:14;7.97;;;3.00;;
66970;SDS011;53901;51.466;-2.588;2023-01-29T09:22:39;6.15;;;3.08;;
66970;SDS011;53901;51.466;-2.588;2023-01-29T09:25:05;6.32;;;3.42;;
66970;SDS011;53901;51.466;-2.588;2023-01-29T09:27:31;6.72;;;3.58;;
66970;SDS011;53901;51.466;-2.588;2023-01-29T09:29:57;4.65;;;2.97;;
66970;SDS011;53901;51.466;-2.588;2023-01-29T09:32:22;4.60;;;2.70;;
66970;SDS011;53901;51.466;-2.588;2023-01-29T09:34:47;6.78;;;3.60;;
66970;SDS011;53901;51.466;-2.588;2023-01-29T09:37:13;6.95;;;3.78;;
66970;SDS011;53901;51.466;-2.588;2023-01-29T09:39:39;5.47;;;3.60;;
66970;SDS011;53901;51.466;-2.588;2023-01-29T09:42:13;6.25;;;3.53;;
66970;SDS011;53901;51.466;-2.588;2023-01-29T09:44:49;6.50;;;3.63;;
66970;SDS011;53901;51.466;-2.588;2023-01-29T09:47:32;4.82;;;2.95;;
66970;SDS011;53901;51.466;-2.588;2023-01-29T09:50:00;4.28;;;2.80;;
66970;SDS011;53901;51.466;-2.588;2023-01-29T09:52:40;4.43;;;2.70;;
66970;SDS011;53901;51.466;-2.588;2023-01-29T09:57:51;4.53;;;2.67;;
66970;SDS011;53901;51.466;-2.588;2023-01-29T10:05:26;3.47;;;2.38;;
66970;SDS011;53901;51.466;-2.588;2023-01-29T10:25:16;6.40;;;3.33;;
66970;SDS011;53901;51.466;-2.588;2023-01-29T10:27:50;5.05;;;2.25;;
66970;SDS011;53901;51.466;-2.588;2023-01-29T10:30:37;4.03;;;2.30;;
66970;SDS011;53901;51.466;-2.588;2023-01-29T10:33:05;3.05;;;1.90;;
66970;SDS011;53901;51.466;-2.588;2023-01-29T10:35:37;4.15;;;2.55;;
66970;SDS011;53901;51.466;-2.588;2023-01-29T10:38:11;3.47;;;2.40;;
66970;SDS011;53901;51.466;-2.588;2023-01-29T10:41:18;3.97;;;2.67;;
66970;SDS011;53901;51.466;-2.588;2023-01-29T10:52:27;5.80;;;3.17;;
66970;SDS011;53901;51.466;-2.588;2023-01-29T10:55:16;5.88;;;3.13;;
66970;SDS011;53901;51.466;-2.588;2023-01-29T10:58:13;6.63;;;3.10;;
66970;SDS011;53901;51.466;-2.588;2023-01-29T11:00:52;5.53;;;3.35;;
66970;SDS011;53901;51.466;-2.588;2023-01-29T11:03:21;5.78;;;3.20;;
66970;SDS011;53901;51.466;-2.588;2023-01-29T11:05:57;5.82;;;3.28;;
66970;SDS011;53901;51.466;-2.588;2023-01-29T11:11:43;9.07;;;3.17;;
66970;SDS011;53901;51.466;-2.588;2023-01-29T11:14:21;7.18;;;3.22;;
66970;SDS011;53901;51.466;-2.588;2023-01-29T11:16:49;4.25;;;2.53;;
66970;SDS011;53901;51.466;-2.588;2023-01-29T11:19:15;7.75;;;3.30;;
66970;SDS011;53901;51.466;-2.588;2023-01-29T11:22:00;3.67;;;2.17;;
66970;SDS011;53901;51.466;-2.588;2023-01-29T11:24:26;5.13;;;3.10;;
66970;SDS011;53901;51.466;-2.588;2023-01-29T11:26:53;8.38;;;3.17;;
66970;SDS011;53901;51.466;-2.588;2023-01-29T11:32:23;5.80;;;2.70;;
66970;SDS011;53901;51.466;-2.588;2023-01-29T11:37:30;4.20;;;2.70;;
66970;SDS011;53901;51.466;-2.588;2023-01-29T11:39:57;3.45;;;2.30;;
66970;SDS011;53901;51.466;-2.588;2023-01-29T11:42:22;2.90;;;1.80;;
66970;SDS011;53901;51.466;-2.588;2023-01-29T11:44:48;2.13;;;1.40;;
66970;SDS011;53901;51.466;-2.588;2023-01-29T11:47:20;5.25;;;1.70;;
66970;SDS011;53901;51.466;-2.588;2023-01-29T11:49:51;2.33;;;1.27;;
66970;SDS011;53901;51.466;-2.588;2023-01-29T11:52:19;2.45;;;1.40;;
66970;SDS011;53901;51.466;-2.588;2023-01-29T11:54:50;2.13;;;1.35;;
66970;SDS011;53901;51.466;-2.588;2023-01-29T12:05:37;1.63;;;1.15;;
66970;SDS011;53901;51.466;-2.588;2023-01-29T12:08:09;1.92;;;0.90;;
66970;SDS011;53901;51.466;-2.588;2023-01-29T12:10:40;1.50;;;1.10;;
66970;SDS011;53901;51.466;-2.588;2023-01-29T12:13:16;2.05;;;1.08;;
66970;SDS011;53901;51.466;-2.588;2023-01-29T12:18:42;1.63;;;1.08;;
66970;SDS011;53901;51.466;-2.588;2023-01-29T12:21:13;1.35;;;1.10;;
66970;SDS011;53901;51.466;-2.588;2023-01-29T12:23:52;5.13;;;1.50;;
66970;SDS011;53901;51.466;-2.588;2023-01-29T12:34:47;3.30;;;1.40;;
66970;SDS011;53901;51.466;-2.588;2023-01-29T12:40:00;3.08;;;1.60;;
66970;SDS011;53901;51.466;-2.588;2023-01-29T12:42:26;2.78;;;1.15;;
66970;SDS011;53901;51.466;-2.588;2023-01-29T12:47:40;4.00;;;1.23;;
66970;SDS011;53901;51.466;-2.588;2023-01-29T12:50:25;4.13;;;1.10;;
66970;SDS011;53901;51.466;-2.588;2023-01-29T12:52:55;4.18;;;1.42;;
66970;SDS011;53901;51.466;-2.588;2023-01-29T12:55:44;2.80;;;1.08;;
66970;SDS011;53901;51.466;-2.588;2023-01-29T12:58:40;2.00;;;1.05;;
66970;SDS011;53901;51.466;-2.588;2023-01-29T13:01:27;4.65;;;1.27;;
66970;SDS011;53901;51.466;-2.588;2023-01-29T13:04:10;2.08;;;0.82;;
66970;SDS011;53901;51.466;-2.588;2023-01-29T13:06:46;3.30;;;1.20;;
66970;SDS011;53901;51.466;-2.588;2023-01-29T13:09:18;1.80;;;1.02;;
66970;SDS011;53901;51.466;-2.588;2023-01-29T13:11:55;2.15;;;0.80;;
66970;SDS011;53901;51.466;-2.588;2023-01-29T13:14:24;2.50;;;0.90;;
66970;SDS011;53901;51.466;-2.588;2023-01-29T13:16:54;3.92;;;1.17;;
66970;SDS011;53901;51.466;-2.588;2023-01-29T13:19:28;3.75;;;0.90;;
66970;SDS011;53901;51.466;-2.588;2023-01-29T13:21:58;1.35;;;0.80;;
66970;SDS011;53901;51.466;-2.588;2023-01-29T13:24:30;2.78;;;0.60;;
66970;SDS011;53901;51.466;-2.588;2023-01-29T13:26:59;1.50;;;0.80;;
66970;SDS011;53901;51.466;-2.588;2023-01-29T13:29:25;2.83;;;0.60;;
66970;SDS011;53901;51.466;-2.588;2023-01-29T13:31:56;4.50;;;0.90;;
66970;SDS011;53901;51.466;-2.588;2023-01-29T13:34:24;2.35;;;0.82;;
66970;SDS011;53901;51.466;-2.588;2023-01-29T13:36:57;5.45;;;0.80;;
66970;SDS011;53901;51.466;-2.588;2023-01-29T13:39:28;1.85;;;0.50;;
66970;SDS011;53901;51.466;-2.588;2023-01-29T13:41:55;3.22;;;0.75;;
66970;SDS011;53901;51.466;-2.588;2023-01-29T13:44:25;2.35;;;0.70;;
66970;SDS011;53901;51.466;-2.588;2023-01-29T13:46:59;3.70;;;1.23;;
66970;SDS011;53901;51.466;-2.588;2023-01-29T13:51:53;1.80;;;1.05;;
66970;SDS011;53901;51.466;-2.588;2023-01-29T13:54:20;1.80;;;0.80;;
66970;SDS011;53901;51.466;-2.588;2023-01-29T13:56:55;1.83;;;0.82;;
66970;SDS011;53901;51.466;-2.588;2023-01-29T14:02:20;2.67;;;0.88;;
66970;SDS011;53901;51.466;-2.588;2023-01-29T14:04:47;1.98;;;0.80;;
66970;SDS011;53901;51.466;-2.588;2023-01-29T14:12:39;3.42;;;0.90;;
66970;SDS011;53901;51.466;-2.588;2023-01-29T14:20:31;1.88;;;0.60;;
66970;SDS011;53901;51.466;-2.588;2023-01-29T14:23:01;2.47;;;0.80;;
66970;SDS011;53901;51.466;-2.588;2023-01-29T14:25:36;3.72;;;0.80;;
66970;SDS011;53901;51.466;-2.588;2023-01-29T14:28:02;1.20;;;0.90;;
66970;SDS011;53901;51.466;-2.588;2023-01-29T14:30:31;2.28;;;1.38;;
66970;SDS011;53901;51.466;-2.588;2023-01-29T14:32:58;2.47;;;1.40;;
66970;SDS011;53901;51.466;-2.588;2023-01-29T14:35:26;2.33;;;1.10;;
66970;SDS011;53901;51.466;-2.588;2023-01-29T14:37:59;3.20;;;1.40;;
66970;SDS011;53901;51.466;-2.588;2023-01-29T14:40:26;1.92;;;1.20;;
66970;SDS011;53901;51.466;-2.588;2023-01-29T14:53:05;4.80;;;1.98;;
66970;SDS011;53901;51.466;-2.588;2023-01-29T14:58:02;4.40;;;1.95;;
66970;SDS011;53901;51.466;-2.588;2023-01-29T15:00:29;5.28;;;2.17;;
66970;SDS011;53901;51.466;-2.588;2023-01-29T15:02:57;5.80;;;2.55;;
66970;SDS011;53901;51.466;-2.588;2023-01-29T15:05:23;5.28;;;2.85;;
66970;SDS011;53901;51.466;-2.588;2023-01-29T15:08:36;7.28;;;2.70;;
66970;SDS011;53901;51.466;-2.588;2023-01-29T15:13:14;4.65;;;2.60;;
66970;SDS011;53901;51.466;-2.588;2023-01-29T15:15:56;5.25;;;2.45;;
66970;SDS011;53901;51.466;-2.588;2023-01-29T15:21:02;6.80;;;1.70;;
66970;SDS011;53901;51.466;-2.588;2023-01-29T15:23:38;2.80;;;1.80;;
66970;SDS011;53901;51.466;-2.588;2023-01-29T15:26:05;3.08;;;1.95;;
66970;SDS011;53901;51.466;-2.588;2023-01-29T15:28:33;3.55;;;1.90;;
66970;SDS011;53901;51.466;-2.588;2023-01-29T15:31:03;2.08;;;1.35;;
66970;SDS011;53901;51.466;-2.588;2023-01-29T15:33:30;1.83;;;1.30;;
66970;SDS011;53901;51.466;-2.588;2023-01-29T15:35:57;2.25;;;1.40;;
66970;SDS011;53901;51.466;-2.588;2023-01-29T15:38:23;1.73;;;1.25;;
66970;SDS011;53901;51.466;-2.588;2023-01-29T15:40:51;2.33;;;1.20;;
66970;SDS011;53901;51.466;-2.588;2023-01-29T15:43:18;3.13;;;1.77;;
66970;SDS011;53901;51.466;-2.588;2023-01-29T15:45:45;2.17;;;1.20;;
66970;SDS011;53901;51.466;-2.588;2023-01-29T15:48:15;6.00;;;1.80;;
66970;SDS011;53901;51.466;-2.588;2023-01-29T15:50:43;3.17;;;1.50;;
66970;SDS011;53901;51.466;-2.588;2023-01-29T15:53:13;2.05;;;1.45;;
66970;SDS011;53901;51.466;-2.588;2023-01-29T15:55:41;2.95;;;1.35;;
66970;SDS011;53901;51.466;-2.588;2023-01-29T15:58:10;2.38;;;1.30;;
66970;SDS011;53901;51.466;-2.588;2023-01-29T16:00:39;2.92;;;1.35;;
66970;SDS011;53901;51.466;-2.588;2023-01-29T16:03:14;1.88;;;1.33;;
66970;SDS011;53901;51.466;-2.588;2023-01-29T16:05:39;4.07;;;2.15;;
66970;SDS011;53901;51.466;-2.588;2023-01-29T16:08:05;5.38;;;2.15;;
66970;SDS011;53901;51.466;-2.588;2023-01-29T16:10:33;5.25;;;2.00;;
66970;SDS011;53901;51.466;-2.588;2023-01-29T16:12:58;5.55;;;2.30;;
66970;SDS011;53901;51.466;-2.588;2023-01-29T16:15:29;3.50;;;1.98;;
66970;SDS011;53901;51.466;-2.588;2023-01-29T16:17:57;4.68;;;2.22;;
66970;SDS011;53901;51.466;-2.588;2023-01-29T16:20:52;3.53;;;2.33;;
66970;SDS011;53901;51.466;-2.588;2023-01-29T16:23:19;7.03;;;2.80;;
66970;SDS011;53901;51.466;-2.588;2023-01-29T16:25:46;6.90;;;2.80;;
66970;SDS011;53901;51.466;-2.588;2023-01-29T16:28:13;6.03;;;2.90;;
66970;SDS011;53901;51.466;-2.588;2023-01-29T16:30:38;7.65;;;3.90;;
66970;SDS011;53901;51.466;-2.588;2023-01-29T16:33:04;7.57;;;3.30;;
66970;SDS011;53901;51.466;-2.588;2023-01-29T16:35:31;4.97;;;2.22;;
66970;SDS011;53901;51.466;-2.588;2023-01-29T16:38:02;7.93;;;3.97;;
66970;SDS011;53901;51.466;-2.588;2023-01-29T16:40:33;7.97;;;4.25;;
66970;SDS011;53901;51.466;-2.588;2023-01-29T16:45:32;8.85;;;3.30;;
66970;SDS011;53901;51.466;-2.588;2023-01-29T16:47:59;7.75;;;3.42;;
66970;SDS011;53901;51.466;-2.588;2023-01-29T16:50:30;6.38;;;3.20;;
66970;SDS011;53901;51.466;-2.588;2023-01-29T16:53:16;6.78;;;3.10;;
66970;SDS011;53901;51.466;-2.588;2023-01-29T16:55:45;5.40;;;3.27;;
66970;SDS011;53901;51.466;-2.588;2023-01-29T16:58:17;4.07;;;2.30;;
66970;SDS011;53901;51.466;-2.588;2023-01-29T17:00:51;4.47;;;2.72;;
66970;SDS011;53901;51.466;-2.588;2023-01-29T17:03:19;5.15;;;2.88;;
66970;SDS011;53901;51.466;-2.588;2023-01-29T17:05:45;4.78;;;2.55;;
66970;SDS011;53901;51.466;-2.588;2023-01-29T17:10:49;4.82;;;2.78;;
66970;SDS011;53901;51.466;-2.588;2023-01-29T17:13:37;7.03;;;3.33;;
66970;SDS011;53901;51.466;-2.588;2023-01-29T17:19:03;4.60;;;3.00;;
66970;SDS011;53901;51.466;-2.588;2023-01-29T17:21:39;7.50;;;3.08;;
66970;SDS011;53901;51.466;-2.588;2023-01-29T17:24:04;5.32;;;3.28;;
66970;SDS011;53901;51.466;-2.588;2023-01-29T17:26:30;4.55;;;2.88;;